Time;durP1;ratioP1;P1;durP2;ratioP2;P2;SDS_P1;SDS_P2;PMS_P1;PMS_P2;Temp;Humidity;BMP_temperature;BMP_pressure;BME280_temperature;BME280_humidity;BME280_pressure;Samples;Min_cycle;Max_cycle;Signal;HPM_P1;HPM_P2
2023/09/26 00:00:23;;;;;;;2.97;1.23;;;10.80;99.90;;;;;;5092557;28;20201;-61
2023/09/26 00:02:50;;;;;;;0.90;0.90;;;10.80;99.90;;;;;;5093501;28;20472;-61
2023/09/26 00:05:18;;;;;;;1.23;0.97;;;10.90;99.90;;;;;;5093030;28;20403;-61
2023/09/26 00:07:44;;;;;;;0.60;0.60;;;10.90;99.90;;;;;;5092742;28;20472;-61
2023/09/26 00:10:13;;;;;;;0.85;0.85;;;10.90;99.90;;;;;;5093071;28;20403;-61
2023/09/26 00:12:39;;;;;;;0.60;0.60;;;11.00;99.90;;;;;;5093407;28;20177;-61
2023/09/26 00:15:06;;;;;;;1.70;1.60;;;10.90;99.90;;;;;;5093092;28;20268;-61
2023/09/26 00:17:32;;;;;;;0.50;0.50;;;10.90;99.90;;;;;;5092842;28;20566;-61
2023/09/26 00:19:58;;;;;;;0.70;0.67;;;10.90;99.90;;;;;;5092794;28;20470;-61
2023/09/26 00:22:24;;;;;;;0.93;0.93;;;10.80;99.90;;;;;;5092995;28;20273;-61
2023/09/26 00:24:51;;;;;;;0.45;0.45;;;10.80;99.90;;;;;;5092750;28;20283;-61
2023/09/26 00:27:17;;;;;;;0.50;0.50;;;10.80;99.90;;;;;;5092533;28;20229;-61
2023/09/26 00:29:44;;;;;;;0.50;0.50;;;10.90;99.90;;;;;;5092810;28;20184;-61
2023/09/26 00:32:10;;;;;;;1.53;0.60;;;10.90;99.90;;;;;;5092909;28;20264;-61
2023/09/26 00:34:36;;;;;;;0.73;0.73;;;11.00;99.90;;;;;;5093234;28;20896;-61
2023/09/26 00:37:01;;;;;;;0.90;0.70;;;10.80;99.90;;;;;;5092353;28;20196;-61
2023/09/26 00:39:27;;;;;;;1.43;1.37;;;10.70;99.90;;;;;;5092485;28;20252;-61
2023/09/26 00:41:53;;;;;;;1.03;1.03;;;10.70;99.90;;;;;;5092639;28;20173;-61
2023/09/26 00:44:18;;;;;;;0.77;0.60;;;10.80;99.90;;;;;;5092766;28;20646;-61
2023/09/26 00:46:45;;;;;;;2.23;1.70;;;10.90;99.90;;;;;;5092141;28;20184;-61
2023/09/26 00:49:11;;;;;;;1.17;1.17;;;10.90;99.90;;;;;;5092393;28;20187;-61
2023/09/26 00:51:38;;;;;;;1.00;1.00;;;10.90;99.90;;;;;;5092447;28;20168;-61
2023/09/26 00:54:05;;;;;;;1.30;1.20;;;10.90;99.90;;;;;;5092311;28;20489;-61
2023/09/26 00:56:31;;;;;;;0.38;0.38;;;10.90;99.90;;;;;;5091973;28;20192;-61
2023/09/26 00:59:00;;;;;;;2.85;2.10;;;10.80;99.90;;;;;;5092295;28;20255;-61
2023/09/26 01:01:29;;;;;;;0.85;0.85;;;10.80;99.90;;;;;;5092355;28;20270;-61
2023/09/26 01:03:56;;;;;;;0.50;0.50;;;10.80;99.90;;;;;;5092181;28;20161;-61
2023/09/26 01:06:21;;;;;;;0.73;0.70;;;10.70;99.90;;;;;;5091595;28;20251;-61
2023/09/26 01:08:47;;;;;;;0.63;0.63;;;10.60;99.90;;;;;;5092200;28;20185;-61
2023/09/26 01:11:13;;;;;;;1.00;1.00;;;10.60;99.90;;;;;;5091973;28;20172;-61
2023/09/26 01:13:39;;;;;;;0.98;0.98;;;10.60;99.90;;;;;;5092218;28;20260;-61
2023/09/26 01:16:18;;;;;;;2.27;2.17;;;10.70;99.90;;;;;;5091728;28;20701;-61
2023/09/26 01:18:45;;;;;;;0.50;0.50;;;10.70;99.90;;;;;;5091993;28;20187;-61
2023/09/26 01:21:11;;;;;;;0.50;0.50;;;10.80;99.90;;;;;;5091836;28;20196;-61
2023/09/26 01:23:40;;;;;;;0.40;0.40;;;10.80;99.90;;;;;;5092114;28;20230;-61
2023/09/26 01:26:06;;;;;;;0.93;0.93;;;10.80;99.90;;;;;;5091513;28;20173;-61
2023/09/26 01:28:32;;;;;;;0.93;0.90;;;10.80;99.90;;;;;;5091961;28;20219;-61
2023/09/26 01:30:57;;;;;;;2.33;2.13;;;10.80;99.90;;;;;;5091891;28;20823;-61
2023/09/26 01:33:23;;;;;;;0.40;0.40;;;10.80;99.90;;;;;;5091737;28;20414;-61
2023/09/26 01:35:51;;;;;;;1.70;0.73;;;10.80;99.90;;;;;;5091688;28;20176;-61
2023/09/26 01:38:19;;;;;;;0.40;0.40;;;10.70;99.90;;;;;;5091676;28;20190;-60
2023/09/26 01:40:45;;;;;;;0.60;0.60;;;10.60;99.90;;;;;;5091709;28;20212;-61
2023/09/26 01:43:11;;;;;;;0.90;0.90;;;10.50;99.90;;;;;;5091660;28;20246;-61
2023/09/26 01:45:37;;;;;;;1.20;1.20;;;10.40;99.90;;;;;;5091416;28;20435;-61
2023/09/26 01:48:05;;;;;;;0.67;0.53;;;10.30;99.90;;;;;;5091453;28;20184;-61
2023/09/26 01:50:32;;;;;;;0.83;0.73;;;10.30;99.90;;;;;;5091826;28;20989;-61
2023/09/26 01:52:57;;;;;;;0.60;0.60;;;10.40;99.90;;;;;;5091603;28;20810;-61
2023/09/26 01:55:23;;;;;;;1.70;1.07;;;10.50;99.90;;;;;;5092101;28;20230;-61
2023/09/26 01:57:49;;;;;;;0.60;0.60;;;10.50;99.90;;;;;;5091396;28;20237;-61
2023/09/26 02:00:17;;;;;;;2.90;2.80;;;10.40;99.90;;;;;;5091531;28;20195;-61
2023/09/26 02:02:50;;;;;;;1.42;1.33;;;10.40;99.90;;;;;;5091449;28;20223;-61
2023/09/26 02:05:19;;;;;;;0.50;0.50;;;10.50;99.90;;;;;;5091571;28;20200;-61
2023/09/26 02:07:47;;;;;;;1.17;1.08;;;10.30;99.90;;;;;;5091163;28;20697;-61
2023/09/26 02:10:14;;;;;;;0.70;0.70;;;10.30;99.90;;;;;;5091480;28;20777;-61
2023/09/26 02:12:42;;;;;;;0.70;0.70;;;10.30;99.90;;;;;;5091477;28;20172;-62
2023/09/26 02:15:08;;;;;;;0.60;0.60;;;10.20;99.90;;;;;;5091371;28;20662;-61
2023/09/26 02:17:37;;;;;;;1.02;1.02;;;10.10;99.90;;;;;;5090942;28;20453;-62
2023/09/26 02:20:14;;;;;;;0.40;0.40;;;10.10;99.90;;;;;;5091291;28;20201;-61
2023/09/26 02:22:46;;;;;;;0.68;0.68;;;10.20;99.90;;;;;;5092044;28;20406;-62
2023/09/26 02:25:14;;;;;;;1.30;1.10;;;10.30;99.90;;;;;;5095238;28;20193;-61
2023/09/26 02:27:41;;;;;;;2.40;1.02;;;10.30;99.90;;;;;;5094777;28;20196;-61
2023/09/26 02:30:09;;;;;;;1.08;1.08;;;10.20;99.90;;;;;;5095374;28;20180;-60
2023/09/26 02:32:35;;;;;;;1.40;1.30;;;10.20;99.90;;;;;;5095095;28;20534;-61
2023/09/26 02:35:10;;;;;;;1.75;1.65;;;10.30;99.90;;;;;;5095039;28;20656;-61
2023/09/26 02:37:36;;;;;;;1.50;1.40;;;10.20;99.90;;;;;;5094661;28;20192;-62
2023/09/26 02:40:05;;;;;;;1.67;1.57;;;10.30;99.90;;;;;;5094869;28;20311;-62
2023/09/26 02:42:32;;;;;;;1.00;0.98;;;10.20;99.90;;;;;;5095089;28;20410;-61
2023/09/26 02:44:59;;;;;;;0.40;0.40;;;10.10;99.90;;;;;;5094780;28;20181;-62
2023/09/26 02:47:24;;;;;;;1.50;1.40;;;10.10;99.90;;;;;;5094462;28;20185;-62
2023/09/26 02:49:50;;;;;;;1.03;1.00;;;10.20;99.90;;;;;;5093562;28;20238;-61
2023/09/26 02:52:15;;;;;;;0.90;0.87;;;10.30;99.90;;;;;;5094736;28;20173;-62
2023/09/26 02:54:41;;;;;;;0.50;0.50;;;10.30;99.90;;;;;;5094803;28;20597;-61
2023/09/26 02:57:07;;;;;;;1.90;0.80;;;10.20;99.90;;;;;;5094829;28;20196;-60
2023/09/26 02:59:32;;;;;;;1.80;1.60;;;10.10;99.90;;;;;;5095278;28;20268;-61
2023/09/26 03:01:58;;;;;;;2.03;1.93;;;10.10;99.90;;;;;;5094492;28;20197;-62
2023/09/26 03:04:24;;;;;;;0.83;0.83;;;10.10;99.90;;;;;;5094503;28;20176;-61
2023/09/26 03:06:49;;;;;;;2.10;0.77;;;10.20;99.90;;;;;;5094112;28;20204;-61
2023/09/26 03:09:15;;;;;;;1.07;0.90;;;10.20;99.90;;;;;;5094480;28;20169;-61
2023/09/26 03:11:43;;;;;;;0.70;0.70;;;10.30;99.90;;;;;;5094193;28;20181;-61
2023/09/26 03:14:09;;;;;;;1.08;0.70;;;10.30;99.90;;;;;;5094710;28;20812;-61
2023/09/26 03:16:35;;;;;;;0.70;0.70;;;10.20;99.90;;;;;;5094144;28;20200;-61
2023/09/26 03:19:00;;;;;;;1.17;1.00;;;10.10;99.90;;;;;;5094287;28;20843;-62
2023/09/26 03:21:26;;;;;;;1.33;1.20;;;10.10;99.90;;;;;;5094178;28;20620;-62
2023/09/26 03:23:51;;;;;;;0.60;0.60;;;10.10;99.90;;;;;;5094208;28;20214;-62
2023/09/26 03:26:17;;;;;;;0.87;0.87;;;10.10;99.90;;;;;;5093636;28;20298;-62
2023/09/26 03:28:43;;;;;;;1.53;1.07;;;10.10;99.90;;;;;;5094054;28;20160;-62
2023/09/26 03:31:08;;;;;;;0.40;0.40;;;10.10;99.90;;;;;;5094163;28;20543;-62
2023/09/26 03:33:35;;;;;;;3.97;1.70;;;10.10;99.90;;;;;;5094123;28;20176;-62
2023/09/26 03:36:01;;;;;;;0.55;0.55;;;10.10;99.90;;;;;;5093602;28;20490;-62
2023/09/26 03:38:27;;;;;;;0.45;0.45;;;10.00;99.90;;;;;;5093863;28;20222;-62
2023/09/26 03:41:00;;;;;;;0.60;0.60;;;9.90;99.90;;;;;;5093723;28;20564;-62
2023/09/26 03:43:28;;;;;;;0.63;0.63;;;9.90;99.90;;;;;;5093814;28;20248;-62
2023/09/26 03:46:01;;;;;;;1.15;1.05;;;9.90;99.90;;;;;;5093343;28;20684;-62
2023/09/26 03:48:27;;;;;;;1.02;0.93;;;10.00;99.90;;;;;;5093687;28;20271;-62
2023/09/26 03:50:53;;;;;;;0.60;0.60;;;10.10;99.90;;;;;;5093632;28;20252;-62
2023/09/26 03:53:18;;;;;;;0.40;0.40;;;10.10;99.90;;;;;;5093583;28;20173;-62
2023/09/26 03:55:53;;;;;;;1.27;1.17;;;10.20;99.90;;;;;;5093183;28;20172;-62
2023/09/26 03:58:19;;;;;;;1.98;0.60;;;10.20;99.90;;;;;;5093325;28;20220;-62
2023/09/26 04:00:44;;;;;;;0.60;0.60;;;10.20;99.90;;;;;;5093317;28;20235;-62
2023/09/26 04:03:10;;;;;;;2.00;1.50;;;10.20;99.90;;;;;;5093403;28;20577;-62
2023/09/26 04:05:35;;;;;;;0.47;0.47;;;10.20;99.90;;;;;;5093135;28;20169;-63
2023/09/26 04:08:01;;;;;;;1.70;1.40;;;10.20;99.90;;;;;;5093021;28;20196;-62
2023/09/26 04:10:27;;;;;;;0.70;0.60;;;10.30;99.90;;;;;;5093224;28;20176;-62
2023/09/26 04:12:52;;;;;;;0.60;0.60;;;10.30;99.90;;;;;;5093195;28;20177;-61
2023/09/26 04:15:18;;;;;;;1.23;0.90;;;10.20;99.90;;;;;;5093015;28;20169;-62
2023/09/26 04:17:45;;;;;;;0.87;0.87;;;10.10;99.90;;;;;;5092904;28;20192;-62
2023/09/26 04:20:12;;;;;;;2.00;1.90;;;10.10;99.90;;;;;;5092934;28;20287;-62
2023/09/26 04:22:37;;;;;;;0.90;0.90;;;10.00;99.90;;;;;;5092812;28;20310;-60
2023/09/26 04:25:03;;;;;;;1.17;1.00;;;9.90;99.90;;;;;;5093074;28;20169;-60
2023/09/26 04:27:29;;;;;;;2.50;1.30;;;10.00;99.90;;;;;;5092566;28;20195;-60
2023/09/26 04:29:55;;;;;;;0.80;0.80;;;10.00;99.90;;;;;;5092824;28;20421;-60
2023/09/26 04:32:20;;;;;;;0.80;0.80;;;10.00;99.90;;;;;;5092797;28;20172;-60
2023/09/26 04:34:46;;;;;;;0.83;0.83;;;10.00;99.90;;;;;;5092910;28;20654;-59
2023/09/26 04:37:11;;;;;;;1.50;1.40;;;10.00;99.90;;;;;;5092533;28;20697;-60
2023/09/26 04:39:37;;;;;;;1.07;1.07;;;10.00;99.90;;;;;;5092624;28;20665;-61
2023/09/26 04:42:04;;;;;;;1.40;1.30;;;9.90;99.90;;;;;;5092637;28;20184;-61
2023/09/26 04:44:29;;;;;;;0.47;0.47;;;9.90;99.90;;;;;;5091997;28;20201;-61
2023/09/26 04:46:55;;;;;;;0.63;0.63;;;10.00;99.90;;;;;;5091623;28;20216;-61
2023/09/26 04:49:21;;;;;;;0.73;0.73;;;10.00;99.90;;;;;;5092416;28;20157;-61
2023/09/26 04:51:47;;;;;;;0.73;0.73;;;9.90;99.90;;;;;;5092331;28;20454;-61
2023/09/26 04:54:12;;;;;;;0.87;0.87;;;9.90;99.90;;;;;;5092372;28;20161;-60
2023/09/26 04:56:38;;;;;;;0.50;0.50;;;10.00;99.90;;;;;;5091531;28;20576;-61
2023/09/26 04:59:04;;;;;;;0.50;0.50;;;10.10;99.90;;;;;;5091801;28;20173;-61
2023/09/26 05:01:30;;;;;;;0.60;0.60;;;10.10;99.90;;;;;;5092158;28;20874;-60
2023/09/26 05:03:58;;;;;;;0.65;0.65;;;10.10;99.90;;;;;;5092215;28;20461;-61
2023/09/26 05:06:23;;;;;;;0.98;0.77;;;10.00;99.90;;;;;;5091062;28;20193;-62
2023/09/26 05:08:50;;;;;;;0.50;0.50;;;9.90;99.90;;;;;;5092174;28;20601;-61
2023/09/26 05:11:16;;;;;;;0.50;0.50;;;9.80;99.90;;;;;;5091266;28;20245;-61
2023/09/26 05:13:43;;;;;;;1.90;1.43;;;9.80;99.90;;;;;;5090059;28;20642;-61
2023/09/26 05:16:09;;;;;;;0.88;0.88;;;9.70;99.90;;;;;;5089789;28;20181;-61
2023/09/26 05:18:36;;;;;;;1.05;0.95;;;9.60;99.90;;;;;;5089870;28;20168;-59
2023/09/26 05:21:06;;;;;;;0.68;0.50;;;9.50;99.90;;;;;;5090716;28;20197;-61
2023/09/26 05:23:32;;;;;;;1.17;1.10;;;9.60;99.90;;;;;;5090879;28;20196;-61
2023/09/26 05:26:06;;;;;;;0.47;0.47;;;9.70;99.90;;;;;;5090169;28;20199;-62
2023/09/26 05:28:32;;;;;;;0.50;0.50;;;9.90;99.90;;;;;;5091618;28;20180;-61
2023/09/26 05:30:57;;;;;;;2.97;1.15;;;10.00;99.90;;;;;;5091244;28;20172;-61
2023/09/26 05:33:23;;;;;;;0.50;0.43;;;10.00;99.90;;;;;;5091817;28;20290;-61
2023/09/26 05:35:49;;;;;;;1.33;1.23;;;10.00;99.90;;;;;;5091090;28;20238;-62
2023/09/26 05:38:15;;;;;;;1.70;1.27;;;10.00;99.90;;;;;;5091721;28;20246;-61
2023/09/26 05:40:40;;;;;;;0.97;0.97;;;9.90;99.90;;;;;;5091535;28;20203;-61
2023/09/26 05:43:06;;;;;;;2.73;1.30;;;9.80;99.90;;;;;;5091195;28;20177;-61
2023/09/26 05:45:32;;;;;;;0.50;0.50;;;9.80;99.90;;;;;;5091470;28;20164;-64
2023/09/26 05:47:57;;;;;;;0.80;0.63;;;9.80;99.90;;;;;;5091404;28;20189;-61
2023/09/26 05:50:23;;;;;;;0.60;0.60;;;9.80;99.90;;;;;;5091554;28;20172;-61
2023/09/26 05:52:49;;;;;;;0.70;0.70;;;9.70;99.90;;;;;;5091936;28;20681;-61
2023/09/26 05:55:15;;;;;;;0.50;0.50;;;9.70;99.90;;;;;;5091467;28;20192;-62
2023/09/26 05:57:40;;;;;;;0.90;0.90;;;9.80;99.90;;;;;;5091793;28;20705;-61
2023/09/26 06:00:12;;;;;;;0.40;0.40;;;9.90;99.90;;;;;;5095466;28;20189;-61
2023/09/26 06:02:38;;;;;;;0.50;0.50;;;9.90;99.90;;;;;;5095635;28;20226;-61
2023/09/26 06:05:04;;;;;;;0.40;0.40;;;9.90;99.90;;;;;;5095664;28;20172;-60
2023/09/26 06:07:30;;;;;;;25.33;1.30;;;10.00;99.90;;;;;;5095046;28;20442;-61
2023/09/26 06:09:56;;;;;;;1.13;0.80;;;10.10;99.90;;;;;;5095560;28;20171;-60
2023/09/26 06:12:22;;;;;;;0.40;0.40;;;10.10;99.90;;;;;;5094583;28;20445;-61
2023/09/26 06:14:47;;;;;;;1.53;0.93;;;10.10;99.90;;;;;;5094242;28;20303;-62
2023/09/26 06:17:13;;;;;;;0.93;0.90;;;10.10;99.90;;;;;;5094079;28;20191;-61
2023/09/26 06:19:39;;;;;;;0.40;0.40;;;10.10;99.90;;;;;;5094295;28;20165;-62
2023/09/26 06:22:05;;;;;;;0.45;0.45;;;10.10;99.90;;;;;;5094362;28;20265;-61
2023/09/26 06:24:31;;;;;;;0.50;0.50;;;10.10;99.90;;;;;;5094323;28;20165;-61
2023/09/26 06:26:57;;;;;;;10.63;1.53;;;10.20;99.90;;;;;;5093825;28;20242;-62
2023/09/26 06:29:23;;;;;;;0.40;0.40;;;10.30;99.90;;;;;;5095053;28;20181;-61
2023/09/26 06:31:49;;;;;;;0.50;0.50;;;10.30;99.90;;;;;;5095050;28;20165;-61
2023/09/26 06:34:14;;;;;;;1.73;1.63;;;10.30;99.90;;;;;;5095114;28;20161;-62
2023/09/26 06:36:40;;;;;;;0.83;0.83;;;10.20;99.90;;;;;;5094624;28;20235;-61
2023/09/26 06:39:06;;;;;;;0.90;0.90;;;10.20;99.90;;;;;;5094785;28;20177;-61
2023/09/26 06:41:32;;;;;;;0.90;0.70;;;10.30;99.90;;;;;;5094340;28;20207;-61
2023/09/26 06:43:57;;;;;;;0.63;0.63;;;10.50;99.90;;;;;;5094380;28;20403;-61
2023/09/26 06:46:23;;;;;;;2.00;1.03;;;10.90;99.90;;;;;;5094024;28;20538;-61
2023/09/26 06:48:48;;;;;;;3.33;1.90;;;11.50;99.90;;;;;;5094866;28;20179;-62
2023/09/26 06:51:14;;;;;;;3.47;1.90;;;12.30;99.90;;;;;;5094829;28;20658;-61
2023/09/26 06:53:40;;;;;;;1.50;1.40;;;13.00;99.90;;;;;;5094836;28;20181;-61
2023/09/26 06:56:07;;;;;;;0.80;0.70;;;13.80;99.90;;;;;;5093009;28;20173;-62
2023/09/26 06:58:34;;;;;;;1.70;1.60;;;14.90;99.90;;;;;;5094685;28;20812;-64
2023/09/26 07:01:00;;;;;;;0.60;0.50;;;16.10;99.90;;;;;;5088030;28;20455;-62
2023/09/26 07:03:30;;;;;;;0.67;0.60;;;17.50;98.80;;;;;;5074382;28;20400;-64
2023/09/26 07:05:56;;;;;;;1.60;0.80;;;18.90;96.80;;;;;;5074053;28;20298;-64
2023/09/26 07:08:22;;;;;;;1.07;0.80;;;20.30;97.10;;;;;;5073637;28;20923;-63
2023/09/26 07:10:49;;;;;;;1.97;1.00;;;21.60;95.30;;;;;;5074084;28;20192;-63
2023/09/26 07:13:14;;;;;;;0.60;0.57;;;22.80;89.10;;;;;;5074078;28;20922;-63
2023/09/26 07:15:40;;;;;;;0.93;0.67;;;24.20;78.30;;;;;;5073418;28;20407;-64
2023/09/26 07:18:10;;;;;;;1.77;0.90;;;25.80;72.10;;;;;;5073808;28;20243;-63
2023/09/26 07:20:38;;;;;;;1.83;1.13;;;27.20;66.40;;;;;;5073594;28;20857;-63
2023/09/26 07:23:04;;;;;;;1.23;0.80;;;28.60;59.30;;;;;;5073927;28;20406;-63
2023/09/26 07:25:30;;;;;;;0.90;0.90;;;29.60;55.90;;;;;;5073713;28;20404;-62
2023/09/26 07:27:56;;;;;;;0.50;0.50;;;30.20;53.40;;;;;;5073305;28;20420;-63
2023/09/26 07:30:21;;;;;;;0.87;0.87;;;30.30;51.60;;;;;;5073749;28;20174;-63
2023/09/26 07:32:47;;;;;;;0.90;0.87;;;30.20;50.70;;;;;;5073941;28;20178;-63
2023/09/26 07:35:13;;;;;;;1.37;1.10;;;30.00;50.20;;;;;;5073799;28;20655;-63
2023/09/26 07:37:39;;;;;;;1.00;0.90;;;29.40;49.10;;;;;;5073249;28;20193;-64
2023/09/26 07:40:08;;;;;;;0.70;0.70;;;28.80;51.00;;;;;;5072797;28;20447;-63
2023/09/26 07:42:35;;;;;;;1.10;1.03;;;28.90;50.90;;;;;;5073452;28;20260;-64
2023/09/26 07:45:01;;;;;;;0.60;0.60;;;29.80;49.60;;;;;;5073155;28;20412;-62
2023/09/26 07:47:26;;;;;;;1.30;1.00;;;30.90;48.30;;;;;;5073158;28;20476;-62
2023/09/26 07:49:52;;;;;;;3.90;0.80;;;32.00;46.60;;;;;;5072935;28;20165;-62
2023/09/26 07:52:18;;;;;;;1.27;1.07;;;33.00;45.20;;;;;;5073299;28;20176;-62
2023/09/26 07:54:43;;;;;;;1.10;0.93;;;33.90;43.70;;;;;;5073276;28;20169;-62
2023/09/26 07:57:09;;;;;;;1.00;0.90;;;34.40;42.00;;;;;;5072828;28;20193;-62
2023/09/26 07:59:34;;;;;;;1.20;1.10;;;34.90;41.90;;;;;;5073245;28;20174;-63
2023/09/26 08:02:00;;;;;;;3.90;1.53;;;35.40;41.10;;;;;;5073338;28;20722;-62
2023/09/26 08:04:26;;;;;;;0.97;0.63;;;35.90;39.70;;;;;;5073038;28;20161;-63
2023/09/26 08:06:51;;;;;;;1.00;1.00;;;36.30;39.60;;;;;;5087298;22;20224;-65
2023/09/26 08:09:17;;;;;;;1.43;0.83;;;36.70;38.30;;;;;;5052824;28;20199;-64
2023/09/26 08:11:43;;;;;;;1.20;1.10;;;37.00;38.50;;;;;;5052881;28;20197;-65
2023/09/26 08:14:09;;;;;;;0.87;0.87;;;37.40;37.80;;;;;;5053019;28;20232;-64
2023/09/26 08:16:34;;;;;;;0.80;0.70;;;37.70;36.80;;;;;;5052360;28;20170;-64
2023/09/26 08:19:00;;;;;;;1.10;0.70;;;37.90;36.60;;;;;;5051720;28;20601;-64
2023/09/26 08:21:26;;;;;;;0.90;0.80;;;38.10;35.80;;;;;;5051588;28;20202;-64
2023/09/26 08:23:53;;;;;;;1.73;1.10;;;38.40;35.00;;;;;;5052128;28;20200;-65
2023/09/26 08:26:19;;;;;;;0.80;0.70;;;38.60;34.70;;;;;;5052290;28;20905;-64
2023/09/26 08:28:45;;;;;;;2.70;1.00;;;38.60;35.40;;;;;;5052503;28;20622;-65
2023/09/26 08:31:15;;;;;;;2.97;1.30;;;38.70;33.80;;;;;;5051930;28;20215;-64
2023/09/26 08:33:44;;;;;;;2.03;1.03;;;39.00;34.00;;;;;;5051715;28;20215;-64
2023/09/26 08:36:14;;;;;;;1.00;0.90;;;39.00;34.10;;;;;;5052131;28;20492;-64
2023/09/26 08:38:40;;;;;;;1.50;1.10;;;39.10;34.50;;;;;;5052412;28;21144;-64
2023/09/26 08:41:09;;;;;;;1.20;1.10;;;38.30;32.80;;;;;;5052588;28;20483;-64
2023/09/26 08:43:36;;;;;;;2.27;1.23;;;37.90;34.60;;;;;;5052432;28;20652;-65
2023/09/26 08:46:02;;;;;;;1.60;1.50;;;37.80;34.40;;;;;;5051833;28;20480;-64
2023/09/26 08:48:28;;;;;;;1.40;1.17;;;37.80;34.90;;;;;;5051511;28;20428;-64
2023/09/26 08:50:53;;;;;;;2.10;0.90;;;37.70;34.50;;;;;;5051773;28;20404;-64
2023/09/26 08:53:19;;;;;;;1.53;1.10;;;37.60;35.80;;;;;;5051363;28;20174;-64
2023/09/26 08:55:49;;;;;;;1.27;1.17;;;37.70;34.20;;;;;;5051747;28;20201;-65
2023/09/26 08:58:16;;;;;;;1.40;1.27;;;37.40;32.60;;;;;;5051968;28;20232;-64
2023/09/26 09:00:44;;;;;;;1.30;1.10;;;36.90;33.90;;;;;;5051548;28;20455;-64
2023/09/26 09:03:10;;;;;;;1.43;1.23;;;36.30;34.60;;;;;;5052144;28;20421;-65
2023/09/26 09:05:35;;;;;;;1.50;1.40;;;36.40;35.20;;;;;;5051461;28;20862;-64
2023/09/26 09:08:01;;;;;;;2.50;2.03;;;36.20;34.70;;;;;;5051679;28;20213;-64
2023/09/26 09:10:27;;;;;;;1.53;1.30;;;36.10;35.60;;;;;;5052230;28;20236;-64
2023/09/26 09:13:11;;;;;;;2.70;1.27;;;35.80;35.80;;;;;;5051752;28;20177;-64
2023/09/26 09:15:37;;;;;;;1.30;1.10;;;35.30;35.60;;;;;;5051203;28;20436;-64
2023/09/26 09:18:03;;;;;;;1.87;1.63;;;35.40;36.60;;;;;;5051606;28;20452;-64
2023/09/26 09:20:31;;;;;;;1.67;1.53;;;35.70;36.80;;;;;;5051557;28;20193;-65
2023/09/26 09:23:01;;;;;;;1.40;1.30;;;35.80;35.30;;;;;;5051612;28;20443;-65
2023/09/26 09:25:38;;;;;;;1.30;1.20;;;35.70;35.00;;;;;;5051297;28;20415;-64
2023/09/26 09:28:07;;;;;;;2.47;1.07;;;35.70;35.00;;;;;;5051390;28;20806;-64
2023/09/26 09:30:41;;;;;;;2.60;1.47;;;35.90;35.00;;;;;;5051343;28;20499;-63
2023/09/26 09:33:09;;;;;;;1.33;1.17;;;35.80;34.50;;;;;;5051157;28;20419;-63
2023/09/26 09:35:35;;;;;;;1.37;1.17;;;35.70;35.40;;;;;;5051047;28;20745;-64
2023/09/26 09:38:02;;;;;;;1.00;0.90;;;35.50;35.40;;;;;;5051365;28;20516;-64
2023/09/26 09:40:28;;;;;;;1.57;1.40;;;34.50;35.60;;;;;;5051226;28;20441;-64
2023/09/26 09:42:55;;;;;;;1.40;1.00;;;34.10;36.70;;;;;;5033298;28;20417;-64
2023/09/26 09:45:21;;;;;;;2.27;1.30;;;34.30;36.70;;;;;;5051404;28;20258;-63
2023/09/26 09:47:48;;;;;;;1.30;1.10;;;34.40;37.00;;;;;;5051062;28;20516;-63
2023/09/26 09:50:15;;;;;;;1.53;1.43;;;34.30;36.20;;;;;;5051350;28;20232;-64
2023/09/26 09:52:48;;;;;;;0.90;0.90;;;33.90;36.50;;;;;;5051715;28;20466;-64
2023/09/26 09:55:28;;;;;;;1.00;0.90;;;33.60;36.50;;;;;;5051025;28;20864;-64
2023/09/26 09:57:57;;;;;;;4.67;1.33;;;32.90;36.80;;;;;;5051107;28;20810;-64
2023/09/26 10:00:25;;;;;;;0.93;0.93;;;32.20;39.40;;;;;;5050982;28;20448;-64
2023/09/26 10:02:52;;;;;;;1.97;1.40;;;32.50;38.20;;;;;;5051242;28;20828;-64
2023/09/26 10:05:19;;;;;;;0.87;0.87;;;32.90;38.00;;;;;;5051012;28;20409;-63
2023/09/26 10:07:47;;;;;;;1.03;0.93;;;33.10;36.80;;;;;;5050767;28;20527;-63
2023/09/26 10:10:14;;;;;;;1.53;1.10;;;33.30;36.60;;;;;;5051106;28;20416;-64
2023/09/26 10:12:41;;;;;;;1.10;1.00;;;33.10;36.70;;;;;;5050781;28;20787;-64
2023/09/26 10:15:13;;;;;;;1.10;0.97;;;33.10;38.30;;;;;;5051043;28;20405;-64
2023/09/26 10:17:45;;;;;;;1.57;1.07;;;33.10;37.90;;;;;;5032712;28;20768;-64
2023/09/26 10:20:12;;;;;;;1.13;1.00;;;32.70;36.70;;;;;;5050781;28;21082;-64
2023/09/26 10:22:41;;;;;;;1.27;0.70;;;32.60;37.70;;;;;;5051145;28;20568;-63
2023/09/26 10:25:08;;;;;;;0.70;0.70;;;32.20;37.20;;;;;;5051027;28;20397;-63
2023/09/26 10:27:34;;;;;;;0.97;0.70;;;31.20;37.50;;;;;;5050640;28;20489;-64
2023/09/26 10:30:03;;;;;;;0.80;0.63;;;30.60;40.60;;;;;;5050870;28;20905;-64
2023/09/26 10:32:37;;;;;;;0.90;0.90;;;30.50;37.10;;;;;;5050862;28;20166;-63
2023/09/26 10:35:24;;;;;;;1.07;0.97;;;30.40;37.00;;;;;;5050807;28;20399;-63
2023/09/26 10:38:00;;;;;;;0.80;0.80;;;30.10;40.00;;;;;;5050694;28;20462;-63
2023/09/26 10:40:26;;;;;;;1.37;0.87;;;29.90;40.90;;;;;;5050771;28;20583;-63
2023/09/26 10:42:52;;;;;;;1.13;1.00;;;29.30;39.10;;;;;;5050723;28;20495;-64
2023/09/26 10:45:18;;;;;;;1.47;1.10;;;28.70;39.30;;;;;;5053453;28;20496;-63
2023/09/26 10:47:44;;;;;;;0.80;0.80;;;28.20;40.90;;;;;;5054248;28;20194;-63
2023/09/26 10:50:14;;;;;;;0.73;0.73;;;27.80;42.00;;;;;;5054241;28;20185;-63
2023/09/26 10:52:47;;;;;;;3.23;1.50;;;27.70;41.50;;;;;;5053647;28;20428;-63
2023/09/26 10:55:19;;;;;;;0.97;0.87;;;27.50;41.00;;;;;;5058622;28;20832;-63
2023/09/26 10:57:45;;;;;;;1.33;1.23;;;27.30;42.70;;;;;;5064494;28;20445;-63
2023/09/26 11:00:13;;;;;;;1.03;0.77;;;27.00;44.20;;;;;;5073761;28;20448;-63
2023/09/26 11:02:39;;;;;;;1.30;1.10;;;26.70;46.80;;;;;;5057828;28;20466;-64
2023/09/26 11:05:08;;;;;;;1.70;0.93;;;26.50;45.60;;;;;;5053816;28;20930;-64
2023/09/26 11:07:35;;;;;;;0.90;0.60;;;26.40;42.10;;;;;;5053511;28;20542;-63
2023/09/26 11:10:03;;;;;;;2.40;1.07;;;26.30;41.20;;;;;;5059972;28;20499;-63
2023/09/26 11:12:30;;;;;;;1.20;0.80;;;26.10;42.50;;;;;;5073714;28;20821;-64
2023/09/26 11:14:59;;;;;;;1.60;1.27;;;25.70;44.00;;;;;;5073943;28;20454;-63
2023/09/26 11:17:29;;;;;;;1.27;1.17;;;25.30;47.20;;;;;;5073668;28;20428;-63
2023/09/26 11:19:59;;;;;;;1.27;1.17;;;25.10;47.10;;;;;;5073668;28;20450;-64
2023/09/26 11:22:26;;;;;;;1.23;0.90;;;24.80;45.30;;;;;;5073742;28;20370;-64
2023/09/26 11:25:09;;;;;;;2.10;1.07;;;24.70;46.80;;;;;;5073685;28;20522;-64
2023/09/26 11:27:43;;;;;;;1.00;0.90;;;24.80;49.90;;;;;;5062776;28;20498;-63
2023/09/26 11:30:17;;;;;;;0.93;0.83;;;24.70;46.40;;;;;;5053299;28;20416;-63
2023/09/26 11:32:49;;;;;;;2.67;1.07;;;24.70;46.40;;;;;;5053581;28;20415;-64
2023/09/26 11:35:19;;;;;;;1.97;0.83;;;24.70;45.70;;;;;;5053427;28;20542;-64
2023/09/26 11:37:50;;;;;;;1.77;1.67;;;24.80;45.60;;;;;;5053243;28;20413;-63
2023/09/26 11:40:23;;;;;;;1.23;0.97;;;24.90;49.20;;;;;;5053214;28;20423;-64
2023/09/26 11:42:51;;;;;;;0.70;0.70;;;24.70;46.30;;;;;;5053493;28;20383;-64
2023/09/26 11:45:27;;;;;;;1.53;0.83;;;24.40;47.20;;;;;;5053167;28;20420;-64
2023/09/26 11:47:54;;;;;;;1.20;1.10;;;24.30;46.70;;;;;;5035546;28;20765;-63
2023/09/26 11:50:20;;;;;;;2.00;0.90;;;24.40;50.80;;;;;;5053280;28;20516;-64
2023/09/26 11:52:48;;;;;;;1.43;1.33;;;24.30;47.40;;;;;;5053160;28;20416;-63
2023/09/26 11:55:18;;;;;;;1.20;1.03;;;24.20;46.70;;;;;;5035904;28;20444;-63
2023/09/26 11:57:49;;;;;;;1.40;1.30;;;24.10;47.20;;;;;;5032820;28;20433;-63
2023/09/26 12:00:18;;;;;;;0.80;0.73;;;23.90;47.30;;;;;;5032100;28;20465;-63
2023/09/26 12:02:45;;;;;;;1.70;1.40;;;23.90;50.30;;;;;;5033213;28;21045;-63
2023/09/26 12:05:11;;;;;;;1.37;1.00;;;23.80;52.20;;;;;;5032903;28;20783;-63
2023/09/26 12:07:41;;;;;;;1.07;0.83;;;23.90;52.70;;;;;;5032503;28;20445;-63
2023/09/26 12:10:08;;;;;;;1.87;0.97;;;24.00;51.40;;;;;;5032980;28;20380;-63
2023/09/26 12:12:34;;;;;;;1.80;1.37;;;23.90;57.20;;;;;;5032559;28;20406;-63
2023/09/26 12:15:25;;;;;;;1.17;1.03;;;23.80;55.00;;;;;;5032668;28;20380;-63
2023/09/26 12:17:52;;;;;;;0.70;0.70;;;23.70;50.60;;;;;;5032592;28;20415;-63
2023/09/26 12:20:23;;;;;;;1.43;0.90;;;23.60;51.60;;;;;;5032737;28;20448;-63
2023/09/26 12:22:50;;;;;;;1.30;1.20;;;23.50;48.70;;;;;;5032725;28;20410;-64
2023/09/26 12:25:16;;;;;;;2.20;0.87;;;23.50;53.30;;;;;;5032617;28;20387;-63
2023/09/26 12:27:42;;;;;;;2.00;1.60;;;23.60;56.70;;;;;;5032332;28;20400;-64
2023/09/26 12:30:08;;;;;;;1.47;1.37;;;23.40;57.00;;;;;;5032600;28;20384;-63
2023/09/26 12:32:34;;;;;;;2.37;1.57;;;23.10;55.30;;;;;;5032530;28;20174;-63
2023/09/26 12:34:59;;;;;;;2.40;1.27;;;23.00;55.30;;;;;;5032444;28;20894;-64
2023/09/26 12:37:25;;;;;;;1.93;1.10;;;23.00;57.90;;;;;;5032031;28;20205;-63
2023/09/26 12:39:51;;;;;;;3.43;0.93;;;22.90;57.20;;;;;;5032262;28;20182;-63
2023/09/26 12:42:16;;;;;;;2.50;1.20;;;22.90;58.10;;;;;;5032496;28;20190;-63
2023/09/26 12:44:42;;;;;;;2.30;2.20;;;22.80;53.50;;;;;;5032547;28;20636;-63
2023/09/26 12:47:08;;;;;;;1.70;1.00;;;22.90;56.50;;;;;;5032030;28;20205;-64